createdAt,value
2022-08-26T00:02:38.744Z,101440.00
2022-08-26T00:06:01.793Z,101438.31
2022-08-26T00:09:25.651Z,101445.13
2022-08-26T00:12:47.286Z,101436.34
2022-08-26T00:16:11.755Z,101430.28
2022-08-26T00:19:33.635Z,101433.16
2022-08-26T00:22:55.291Z,101439.59
2022-08-26T00:26:17.313Z,101432.50
2022-08-26T00:29:39.923Z,101431.84
2022-08-26T00:33:04.477Z,101433.72
2022-08-26T00:36:29.765Z,101434.75
2022-08-26T00:39:52.866Z,101425.97
2022-08-26T00:43:18.334Z,101420.72
2022-08-26T00:46:46.364Z,101423.63
2022-08-26T00:50:15.506Z,101425.47
2022-08-26T00:53:42.789Z,101422.13
2022-08-26T00:57:15.940Z,101424.34
2022-08-26T01:00:38.306Z,101411.13
2022-08-26T01:04:01.293Z,101415.72
2022-08-26T01:07:25.425Z,101416.91
2022-08-26T01:10:47.407Z,101413.56
2022-08-26T01:14:10.551Z,101411.88
2022-08-26T01:17:33.257Z,101412.53
2022-08-26T01:21:01.750Z,101418.13
2022-08-26T01:24:27.573Z,101414.94
2022-08-26T01:27:49.898Z,101416.16
2022-08-26T01:31:16.176Z,101408.38
2022-08-26T01:34:40.814Z,101413.78
2022-08-26T01:38:05.083Z,101404.19
2022-08-26T01:41:29.129Z,101417.06
2022-08-26T01:44:54.881Z,101415.38
2022-08-26T01:48:24.646Z,101411.00
2022-08-26T01:51:47.928Z,101408.28
2022-08-26T01:55:11.362Z,101399.50
2022-08-26T01:58:39.586Z,101400.69
2022-08-26T02:02:02.067Z,101405.09
2022-08-26T02:05:24.766Z,101406.97
2022-08-26T02:08:49.625Z,101400.22
2022-08-26T02:12:15.600Z,101399.38
2022-08-26T02:15:42.912Z,101389.41
2022-08-26T02:19:05.904Z,101395.84
2022-08-26T02:22:32.197Z,101395.16
2022-08-26T02:25:57.915Z,101383.88
2022-08-26T02:29:25.954Z,101386.75
2022-08-26T02:32:49.462Z,101386.28
2022-08-26T02:36:12.110Z,101392.53
2022-08-26T02:39:37.579Z,101387.47
2022-08-26T02:42:59.842Z,101382.25
2022-08-26T02:46:29.735Z,101382.41
2022-08-26T02:49:53.366Z,101380.09
2022-08-26T02:53:16.310Z,101383.63
2022-08-26T02:56:46.257Z,101379.41
2022-08-26T03:00:10.999Z,101378.56
2022-08-26T03:03:33.133Z,101375.19
2022-08-26T03:06:56.534Z,101379.78
2022-08-26T03:10:19.295Z,101375.03
2022-08-26T03:13:42.126Z,101372.50
2022-08-26T03:17:04.109Z,101380.97
2022-08-26T03:20:26.006Z,101370.16
2022-08-26T03:23:49.627Z,101371.53
2022-08-26T03:27:11.714Z,101369.19
2022-08-26T03:30:44.824Z,101367.72
2022-08-26T03:34:07.307Z,101372.09
2022-08-26T03:37:28.907Z,101366.50
2022-08-26T03:40:52.326Z,101361.75
2022-08-26T03:44:14.522Z,101359.03
2022-08-26T03:47:36.401Z,101369.03
2022-08-26T03:51:00.031Z,101364.28
2022-08-26T03:54:24.934Z,101370.50
2022-08-26T03:57:48.591Z,101369.31
2022-08-26T04:01:10.350Z,101363.25
2022-08-26T04:04:32.325Z,101354.78
2022-08-26T04:07:54.854Z,101356.81
2022-08-26T04:11:19.843Z,101363.91
2022-08-26T04:14:43.126Z,101353.09
2022-08-26T04:18:06.366Z,101352.06
2022-08-26T04:21:29.448Z,101343.97
2022-08-26T04:24:51.315Z,101338.34
2022-08-26T04:28:14.801Z,101341.91
2022-08-26T04:31:39.734Z,101340.03
2022-08-26T04:35:01.928Z,101342.59
2022-08-26T04:38:23.962Z,101338.19
2022-08-26T04:41:46.205Z,101339.38
2022-08-26T04:45:10.350Z,101341.25
2022-08-26T04:48:35.298Z,101340.59
2022-08-26T04:51:57.022Z,101341.78
2022-08-26T04:55:19.067Z,101334.53
2022-08-26T04:58:42.299Z,101340.78
2022-08-26T05:02:04.446Z,101347.84
2022-08-26T05:05:29.207Z,101341.44
2022-08-26T05:08:51.560Z,101345.66
2022-08-26T05:12:14.952Z,101335.19
2022-08-26T05:15:38.463Z,101343.31
2022-08-26T05:19:00.209Z,101352.06
2022-08-26T05:22:23.755Z,101350.84
2022-08-26T05:25:48.745Z,101356.75
2022-08-26T05:29:10.739Z,101357.06
2022-08-26T05:32:32.567Z,101356.69
2022-08-26T05:35:54.278Z,101356.16
2022-08-26T05:39:18.842Z,101354.94
2022-08-26T05:42:40.907Z,101358.97
2022-08-26T05:46:08.139Z,101354.91
2022-08-26T05:49:30.118Z,101350.59
2022-08-26T05:52:52.215Z,101346.34
2022-08-26T05:56:15.819Z,101356.44
2022-08-26T05:59:37.735Z,101358.22
2022-08-26T06:03:01.011Z,101360.22
2022-08-26T06:06:27.878Z,101362.19
2022-08-26T06:09:50.692Z,101362.66
2022-08-26T06:13:14.183Z,101354.84
2022-08-26T06:16:38.577Z,101354.91
2022-08-26T06:20:02.513Z,101351.09
2022-08-26T06:23:41.815Z,101361.00
2022-08-26T06:27:05.647Z,101354.00
2022-08-26T06:30:28.975Z,101356.59
2022-08-26T06:33:51.482Z,101354.00
2022-08-26T06:37:13.416Z,101352.84
2022-08-26T06:40:36.487Z,101352.56
2022-08-26T06:43:58.132Z,101351.66
2022-08-26T06:47:21.467Z,101350.50
2022-08-26T06:50:45.333Z,101348.53
2022-08-26T06:54:08.284Z,101358.22
2022-08-26T06:57:32.820Z,101349.56
2022-08-26T07:01:00.665Z,101353.00
2022-08-26T07:04:27.831Z,101354.16
2022-08-26T07:07:49.691Z,101349.63
2022-08-26T07:11:14.211Z,101353.25
2022-08-26T07:14:35.959Z,101343.97
2022-08-26T07:17:57.570Z,101336.72
2022-08-26T07:21:22.518Z,101335.53
2022-08-26T07:24:45.799Z,101332.69
2022-08-26T07:28:07.861Z,101333.56
2022-08-26T07:31:39.660Z,101323.56
2022-08-26T07:35:06.155Z,101319.88
2022-08-26T07:38:30.009Z,101318.22
2022-08-26T07:41:56.221Z,101313.28
2022-08-26T07:45:19.508Z,101318.53
2022-08-26T07:48:41.377Z,101315.69
2022-08-26T07:52:08.720Z,101318.84
2022-08-26T07:55:32.340Z,101310.31
2022-08-26T07:58:55.119Z,101311.63
2022-08-26T08:02:17.102Z,101311.44
2022-08-26T08:05:41.268Z,101311.69
2022-08-26T08:09:03.420Z,101306.88
2022-08-26T08:12:27.790Z,101303.59
2022-08-26T08:15:50.321Z,101302.97
2022-08-26T08:19:12.245Z,101300.88
2022-08-26T08:22:33.915Z,101307.78
2022-08-26T08:26:02.435Z,101296.91
2022-08-26T08:29:26.671Z,101292.69
2022-08-26T08:32:48.915Z,101298.56
2022-08-26T08:36:10.656Z,101284.75
2022-08-26T08:39:40.366Z,101296.03
2022-08-26T08:43:05.320Z,101294.31
2022-08-26T08:46:30.203Z,101284.25
2022-08-26T08:49:54.502Z,101282.94
2022-08-26T08:53:20.410Z,101281.66
2022-08-26T08:56:48.232Z,101265.91
2022-08-26T09:00:17.733Z,101271.72
2022-08-26T09:03:51.098Z,101268.13
2022-08-26T09:07:18.544Z,101266.44
2022-08-26T09:10:44.351Z,101267.84
2022-08-26T09:14:06.734Z,101261.31
2022-08-26T09:17:40.763Z,101261.03
2022-08-26T09:21:06.669Z,101245.84
2022-08-26T09:24:31.973Z,101259.00
2022-08-26T09:27:55.149Z,101253.72
2022-08-26T09:31:25.178Z,101256.59
2022-08-26T09:34:58.083Z,101259.31
2022-08-26T09:38:27.992Z,101250.69
2022-08-26T09:42:04.329Z,101245.38
2022-08-26T09:45:29.584Z,101243.22
2022-08-26T09:48:53.232Z,101242.66
2022-08-26T09:52:23.510Z,101236.38
2022-08-26T09:55:50.131Z,101235.03
2022-08-26T09:59:12.701Z,101233.75
2022-08-26T10:02:47.452Z,101226.06
2022-08-26T10:06:24.111Z,101223.59
2022-08-26T10:09:48.146Z,101218.13
2022-08-26T10:13:20.459Z,101221.06
2022-08-26T10:16:52.724Z,101204.22
2022-08-26T10:20:23.533Z,101198.69
2022-08-26T10:23:52.104Z,101195.63
2022-08-26T10:27:25.558Z,101190.94
2022-08-26T10:30:54.886Z,101183.75
2022-08-26T10:34:19.207Z,101176.75
2022-08-26T10:37:48.040Z,101175.59
2022-08-26T10:41:15.894Z,101156.94
2022-08-26T10:44:43.920Z,101160.28
2022-08-26T10:48:11.096Z,101155.78
2022-08-26T10:51:38.582Z,101149.47
2022-08-26T10:55:07.009Z,101154.84
2022-08-26T10:58:44.532Z,101141.06
2022-08-26T11:02:13.322Z,101129.06
2022-08-26T11:05:37.346Z,101116.75
2022-08-26T11:09:02.262Z,101113.41
2022-08-26T11:13:04.651Z,101105.69
2022-08-26T11:16:43.697Z,101105.19
2022-08-26T11:20:09.169Z,101096.53
2022-08-26T11:23:50.831Z,101089.16
2022-08-26T11:27:54.248Z,101086.66
2022-08-26T11:31:48.908Z,101089.66
2022-08-26T11:35:13.048Z,101074.81
2022-08-26T11:38:35.174Z,101066.16
2022-08-26T11:42:04.225Z,101057.94
2022-08-26T11:45:32.204Z,101045.66
2022-08-26T11:49:02.507Z,101026.28
2022-08-26T11:52:26.282Z,101026.19
2022-08-26T11:55:48.738Z,101021.78
2022-08-26T11:59:16.589Z,101022.13
2022-08-26T12:02:40.358Z,101027.59
2022-08-26T12:06:03.093Z,101035.69
2022-08-26T12:09:26.529Z,101037.34
2022-08-26T12:12:56.654Z,101025.19
2022-08-26T12:16:25.565Z,101015.91
2022-08-26T12:19:47.183Z,101021.38
2022-08-26T12:23:09.205Z,101021.00
2022-08-26T12:26:33.333Z,101018.75
2022-08-26T12:30:08.805Z,101019.22
2022-08-26T12:33:37.058Z,100990.81
2022-08-26T12:40:32.982Z,100985.47
2022-08-26T12:43:56.737Z,101006.28
2022-08-26T12:47:30.897Z,101003.56
2022-08-26T12:51:08.610Z,101009.50
2022-08-26T12:54:44.499Z,101020.66
2022-08-26T12:58:29.615Z,101020.44
2022-08-26T13:01:52.310Z,101011.38
2022-08-26T13:05:21.811Z,101017.09
2022-08-26T13:08:46.484Z,101015.41
2022-08-26T13:12:08.409Z,101021.94
2022-08-26T13:15:30.134Z,101020.06
2022-08-26T13:18:56.891Z,101038.50
2022-08-26T13:22:24.152Z,101053.38
2022-08-26T13:25:47.383Z,101071.16
2022-08-26T13:29:10.607Z,101097.75
2022-08-26T13:32:32.771Z,101090.31
2022-08-26T13:35:54.849Z,101083.16
2022-08-26T13:39:17.417Z,101078.63
2022-08-26T13:42:42.994Z,101069.59
2022-08-26T13:46:11.513Z,101061.66
2022-08-26T13:49:34.090Z,101081.69
2022-08-26T13:52:55.910Z,101078.78
2022-08-26T13:56:18.782Z,101068.09
2022-08-26T13:59:42.140Z,101059.94
2022-08-26T14:03:04.083Z,101067.44
2022-08-26T14:06:26.202Z,101075.38
2022-08-26T14:09:47.966Z,101064.50
2022-08-26T14:13:09.908Z,101063.44
2022-08-26T14:16:37.237Z,101073.22
2022-08-26T14:20:22.675Z,101072.00
2022-08-26T14:23:45.230Z,101070.09
2022-08-26T14:27:07.298Z,101068.63
2022-08-26T14:30:29.199Z,101075.53
2022-08-26T14:33:52.373Z,101070.06
2022-08-26T14:37:15.359Z,101074.47
2022-08-26T14:40:40.146Z,101065.00
2022-08-26T14:44:04.229Z,101054.13
2022-08-26T14:47:26.279Z,101055.56
2022-08-26T14:50:49.498Z,101039.44
2022-08-26T14:54:16.273Z,101039.63
2022-08-26T14:57:37.722Z,101046.25
2022-08-26T15:00:59.846Z,101032.91
2022-08-26T15:04:26.252Z,101025.81
2022-08-26T15:07:49.329Z,101027.09
2022-08-26T15:11:11.121Z,101032.34
2022-08-26T15:14:33.326Z,101038.41
2022-08-26T15:17:54.978Z,101042.38
2022-08-26T15:21:16.954Z,101039.91
2022-08-26T15:24:40.434Z,101029.47
2022-08-26T15:28:02.311Z,101025.72
2022-08-26T15:31:31.006Z,101049.97
2022-08-26T15:34:53.148Z,101078.59
2022-08-26T15:38:15.022Z,101077.53
2022-08-26T15:41:38.678Z,101057.31
2022-08-26T15:45:00.454Z,101056.91
2022-08-26T15:48:24.411Z,101077.81
2022-08-26T15:51:47.822Z,101062.78
2022-08-26T15:55:10.691Z,101064.44
2022-08-26T15:58:34.034Z,101066.13
2022-08-26T16:01:57.991Z,101061.09
2022-08-26T16:05:19.790Z,101058.81
2022-08-26T16:08:41.666Z,101057.94
2022-08-26T16:12:03.452Z,101049.75
2022-08-26T16:15:29.051Z,101034.09
2022-08-26T16:18:51.078Z,101027.19
2022-08-26T16:22:13.078Z,101022.81
2022-08-26T16:25:35.306Z,101018.44
2022-08-26T16:28:57.433Z,101013.41
2022-08-26T16:32:20.477Z,101029.06
2022-08-26T16:35:43.919Z,101028.44
2022-08-26T16:39:07.517Z,101023.00
2022-08-26T16:42:29.231Z,101041.44
2022-08-26T16:45:51.139Z,101054.59
2022-08-26T16:49:14.158Z,101048.34
2022-08-26T16:52:37.146Z,101033.56
2022-08-26T16:55:59.198Z,101042.53
2022-08-26T16:59:20.930Z,101049.44
2022-08-26T17:02:42.781Z,101051.94
2022-08-26T17:06:06.315Z,101062.38
2022-08-26T17:09:28.170Z,101060.28
2022-08-26T17:12:50.313Z,101048.19
2022-08-26T17:16:13.582Z,101052.19
2022-08-26T17:19:40.737Z,101057.16
2022-08-26T17:23:10.513Z,101061.56
2022-08-26T17:26:32.663Z,101043.22
2022-08-26T17:29:54.686Z,101029.63
2022-08-26T17:33:17.101Z,101027.09
2022-08-26T17:36:43.311Z,101010.38
2022-08-26T17:40:09.713Z,101003.88
2022-08-26T17:43:31.377Z,101000.53
2022-08-26T17:46:53.756Z,100999.28
2022-08-26T17:50:18.331Z,100999.28
2022-08-26T17:53:41.209Z,100990.50
2022-08-26T17:57:10.677Z,101002.78
2022-08-26T18:00:32.527Z,101005.06
2022-08-26T18:04:00.184Z,100995.47
2022-08-26T18:07:22.823Z,100998.78
2022-08-26T18:10:45.487Z,101009.00
2022-08-26T18:14:08.710Z,101009.19
2022-08-26T18:17:30.722Z,101010.22
2022-08-26T18:20:52.599Z,101002.50
2022-08-26T18:24:24.495Z,101006.25
2022-08-26T18:27:46.529Z,100996.88
2022-08-26T18:31:12.491Z,100993.72
2022-08-26T18:34:35.629Z,100998.53
2022-08-26T18:37:58.236Z,101016.88
2022-08-26T18:41:25.960Z,101017.69
2022-08-26T18:44:51.128Z,101013.88
2022-08-26T18:48:14.646Z,101022.66
2022-08-26T18:51:37.930Z,101025.75
2022-08-26T18:55:00.633Z,101020.34
2022-08-26T18:58:22.623Z,101025.91
2022-08-26T19:01:45.372Z,101010.44
2022-08-26T19:05:10.235Z,100990.41
2022-08-26T19:08:32.357Z,100987.03
2022-08-26T19:11:54.271Z,100994.75
2022-08-26T19:15:15.936Z,100988.88
2022-08-26T19:18:38.138Z,100991.56
2022-08-26T19:22:01.602Z,100998.25
2022-08-26T19:25:23.183Z,101005.09
2022-08-26T19:28:45.232Z,101012.75
2022-08-26T19:32:07.074Z,101019.59
2022-08-26T19:35:28.873Z,101024.19
2022-08-26T19:38:55.267Z,101015.00
2022-08-26T19:42:17.688Z,101020.00
2022-08-26T19:45:39.833Z,101008.31
2022-08-26T19:49:01.747Z,101011.03
2022-08-26T19:52:29.735Z,101014.75
2022-08-26T19:55:53.085Z,101016.19
2022-08-26T19:59:15.222Z,101014.91
2022-08-26T20:02:37.430Z,101016.81
2022-08-26T20:05:59.751Z,101020.78
2022-08-26T20:09:21.732Z,101032.66
2022-08-26T20:12:45.581Z,101027.25
2022-08-26T20:16:08.045Z,101026.41
2022-08-26T20:19:47.258Z,101028.28
2022-08-26T20:23:09.362Z,101026.78
2022-08-26T20:26:35.958Z,101023.19
2022-08-26T20:29:59.095Z,101033.00
2022-08-26T20:33:21.193Z,101030.47
2022-08-26T20:36:43.910Z,101037.13
2022-08-26T20:40:08.424Z,101047.34
2022-08-26T20:43:30.506Z,101057.72
2022-08-26T20:46:53.995Z,101056.41
2022-08-26T20:50:15.586Z,101060.72
2022-08-26T20:53:37.577Z,101065.50
2022-08-26T20:57:00.103Z,101062.78
2022-08-26T21:00:22.986Z,101059.28
2022-08-26T21:03:51.881Z,101064.88
2022-08-26T21:07:13.567Z,101062.16
2022-08-26T21:10:35.878Z,101063.19
2022-08-26T21:14:15.956Z,101064.22
2022-08-26T21:17:38.873Z,101073.19
2022-08-26T21:21:05.113Z,101077.75
2022-08-26T21:24:27.116Z,101074.22
2022-08-26T21:27:48.912Z,101066.66
2022-08-26T21:31:13.462Z,101074.16
2022-08-26T21:34:35.380Z,101069.59
2022-08-26T21:37:58.337Z,101089.53
2022-08-26T21:41:22.132Z,101092.47
2022-08-26T21:44:45.142Z,101097.88
2022-08-26T21:48:14.318Z,101095.34
2022-08-26T21:51:38.575Z,101092.84
2022-08-26T21:55:03.398Z,101094.91
2022-08-26T21:58:30.533Z,101070.72
2022-08-26T22:01:52.455Z,101064.00
2022-08-26T22:05:14.617Z,101067.31
2022-08-26T22:08:36.742Z,101050.78
2022-08-26T22:12:00.551Z,101049.84
2022-08-26T22:15:25.798Z,101054.63
2022-08-26T22:18:47.392Z,101054.19
2022-08-26T22:22:09.707Z,101044.56
2022-08-26T22:25:31.442Z,101031.19
2022-08-26T22:28:58.507Z,101041.59
2022-08-26T22:32:21.289Z,101030.75
2022-08-26T22:35:45.649Z,101032.44
2022-08-26T22:39:07.494Z,101035.59
2022-08-26T22:42:32.199Z,101022.91
2022-08-26T22:45:56.870Z,101021.50
2022-08-26T22:49:19.576Z,101004.22
2022-08-26T22:52:41.992Z,101000.06
2022-08-26T22:56:03.946Z,100986.31
2022-08-26T22:59:26.209Z,100991.16
2022-08-26T23:02:49.515Z,100965.13
2022-08-26T23:06:11.852Z,100969.03
2022-08-26T23:09:33.461Z,100979.22
2022-08-26T23:12:55.354Z,100980.25
2022-08-26T23:16:17.064Z,100982.97
2022-08-26T23:19:40.229Z,100980.91
2022-08-26T23:23:02.478Z,100977.63
2022-08-26T23:26:24.906Z,100982.19
2022-08-26T23:29:46.994Z,100982.41
2022-08-26T23:33:08.833Z,100981.75
2022-08-26T23:36:31.169Z,100970.47
2022-08-26T23:39:56.928Z,100968.41
2022-08-26T23:43:18.617Z,100971.75
2022-08-26T23:46:40.581Z,100970.06
2022-08-26T23:50:02.611Z,100974.06
2022-08-26T23:53:24.714Z,100971.38
2022-08-26T23:56:46.519Z,100964.28
